Terminal Aerodrome Forecast
Issued by NWS Corpus Christi, TX

Home | Current Version | Previous Version | Text Only | Print | Product List | Glossary On
Versions: 1 2 3 4 5 6 7 8 9 10 11 12 13 14 15 16 17 18 19
000
FTUS44 KCRP 011133
TAFCRP
TAF
KCRP 011133Z 0112/0212 14004KT P6SM VCSH SCT015 BKN150
      TEMPO 0112/0115 5SM SHRA BKN015
     FM011500 16016G22KT P6SM VCTS BKN025CB BKN150
      TEMPO 0115/0119 VRB18G30KT 3SM TSRA BKN025CB
     FM012000 15016G22KT P6SM FEW025 SCT035 BKN150
     FM020200 14008KT P6SM FEW020 SCT150
     FM020800 16006KT P6SM SCT012 SCT150=

USA.gov is the U.S. government's official web portal to all federal, state and local government web resources and services.